createdAt,value
2022-11-22T00:00:48.217Z,12.36
2022-11-22T00:06:14.738Z,12.31
2022-11-22T00:11:44.410Z,12.26
2022-11-22T00:17:13.512Z,12.29
2022-11-22T00:22:44.895Z,12.23
2022-11-22T00:28:14.021Z,12.29
2022-11-22T00:33:43.303Z,12.24
2022-11-22T00:39:13.719Z,12.16
2022-11-22T00:44:37.563Z,12.14
2022-11-22T00:50:01.877Z,12.15
2022-11-22T00:55:26.905Z,12.20
2022-11-22T01:00:56.952Z,12.17
2022-11-22T01:06:32.169Z,12.16
2022-11-22T01:11:56.989Z,12.16
2022-11-22T01:17:26.221Z,12.10
2022-11-22T01:22:52.035Z,12.11
2022-11-22T01:28:22.572Z,12.12
2022-11-22T01:33:46.045Z,12.13
2022-11-22T01:39:13.379Z,12.11
2022-11-22T01:44:44.773Z,12.12
2022-11-22T01:50:17.992Z,12.03
2022-11-22T01:55:49.075Z,12.02
2022-11-22T02:01:20.041Z,11.98
2022-11-22T02:06:55.069Z,11.95
2022-11-22T02:12:28.457Z,11.95
2022-11-22T02:17:59.321Z,11.97
2022-11-22T02:23:37.529Z,11.99
2022-11-22T02:29:08.994Z,11.97
2022-11-22T02:34:45.441Z,11.92
2022-11-22T02:40:16.922Z,11.91
2022-11-22T02:45:47.782Z,11.90
2022-11-22T02:51:19.863Z,11.93
2022-11-22T02:56:49.436Z,11.91
2022-11-22T03:02:19.744Z,11.90
2022-11-22T03:07:49.251Z,11.82
2022-11-22T03:13:18.176Z,11.77
2022-11-22T03:18:48.659Z,11.70
2022-11-22T03:24:17.504Z,11.57
2022-11-22T03:29:46.473Z,11.29
2022-11-22T03:35:16.470Z,10.61
2022-11-22T03:40:47.405Z,10.34
2022-11-22T03:46:17.129Z,10.11
2022-11-22T03:51:47.479Z,9.94
2022-11-22T03:57:17.027Z,9.67
2022-11-22T04:02:46.172Z,9.54
2022-11-22T04:08:16.615Z,9.53
2022-11-22T04:14:02.534Z,9.13
2022-11-22T04:19:31.494Z,8.74
2022-11-22T04:25:16.679Z,8.38
2022-11-22T04:30:57.164Z,8.23
2022-11-22T04:36:20.625Z,8.18
2022-11-22T04:41:45.803Z,7.92
2022-11-22T04:47:09.112Z,7.89
2022-11-22T04:52:50.060Z,7.45
2022-11-22T04:58:21.111Z,6.87
2022-11-22T05:03:44.868Z,6.91
2022-11-22T05:09:08.794Z,7.23
2022-11-22T05:14:35.329Z,7.05
2022-11-22T05:20:05.539Z,6.29
2022-11-22T05:25:29.911Z,6.25
2022-11-22T05:31:00.582Z,6.43
2022-11-22T05:36:25.039Z,6.33
2022-11-22T05:41:56.847Z,6.09
2022-11-22T05:47:23.768Z,6.05
2022-11-22T05:52:52.331Z,6.28
2022-11-22T05:58:16.268Z,6.09
2022-11-22T06:03:41.591Z,5.72
2022-11-22T06:09:10.357Z,5.74
2022-11-22T06:14:39.950Z,5.53
2022-11-22T06:20:14.338Z,5.03
2022-11-22T06:25:43.329Z,5.31
2022-11-22T06:31:15.311Z,4.81
2022-11-22T06:36:53.382Z,4.62
2022-11-22T06:42:22.521Z,4.57
2022-11-22T06:47:53.862Z,4.68
2022-11-22T06:53:46.112Z,4.53
2022-11-22T06:59:16.496Z,5.03
2022-11-22T07:05:25.111Z,4.87
2022-11-22T07:11:04.949Z,4.61
2022-11-22T07:16:34.166Z,4.52
2022-11-22T07:22:00.336Z,4.54
2022-11-22T07:27:25.279Z,4.63
2022-11-22T07:32:49.051Z,4.83
2022-11-22T07:38:16.923Z,4.98
2022-11-22T07:43:47.953Z,4.88
2022-11-22T07:49:17.377Z,4.53
2022-11-22T07:54:41.945Z,4.56
2022-11-22T08:00:14.465Z,4.82
2022-11-22T08:05:43.439Z,4.78
2022-11-22T08:11:16.056Z,4.92
2022-11-22T08:17:06.416Z,5.09
2022-11-22T08:22:43.020Z,5.00
2022-11-22T08:28:21.692Z,5.06
2022-11-22T08:33:50.093Z,5.04
2022-11-22T08:39:27.176Z,4.99
2022-11-22T08:44:57.301Z,4.64
2022-11-22T08:50:30.256Z,4.56
2022-11-22T08:56:00.751Z,4.57
2022-11-22T09:01:29.334Z,4.77
2022-11-22T09:12:37.617Z,5.08
2022-11-22T09:18:06.442Z,4.97
2022-11-22T09:23:35.599Z,5.12
2022-11-22T09:29:04.243Z,5.18
2022-11-22T09:34:33.063Z,5.13
2022-11-22T09:39:59.370Z,5.13
2022-11-22T09:45:46.970Z,5.13
2022-11-22T09:51:20.701Z,4.99
2022-11-22T09:56:48.459Z,5.03
2022-11-22T10:02:24.371Z,4.93
2022-11-22T10:08:00.957Z,4.98
2022-11-22T10:13:31.508Z,4.95
2022-11-22T10:19:02.178Z,4.72
2022-11-22T10:24:25.626Z,4.74
2022-11-22T10:30:01.267Z,4.82
2022-11-22T10:35:30.486Z,4.72
2022-11-22T10:41:10.537Z,4.52
2022-11-22T10:46:45.217Z,4.42
2022-11-22T10:52:20.124Z,4.46
2022-11-22T10:57:53.115Z,4.56
2022-11-22T11:03:28.676Z,4.53
2022-11-22T11:10:02.991Z,4.57
2022-11-22T11:14:48.047Z,4.75
2022-11-22T11:20:26.315Z,4.71
2022-11-22T11:25:55.569Z,4.60
2022-11-22T11:31:21.755Z,4.55
2022-11-22T11:36:47.839Z,4.44
2022-11-22T11:42:26.947Z,4.33
2022-11-22T11:47:50.247Z,4.34
2022-11-22T11:53:23.925Z,4.47
2022-11-22T11:58:54.290Z,4.46
2022-11-22T12:04:22.810Z,4.23
2022-11-22T12:09:58.162Z,4.20
2022-11-22T12:15:26.046Z,4.17
2022-11-22T12:21:03.574Z,4.24
2022-11-22T12:26:33.537Z,4.02
2022-11-22T12:32:07.535Z,3.90
2022-11-22T12:37:40.040Z,4.02
2022-11-22T12:43:13.008Z,4.05
2022-11-22T12:48:49.239Z,3.92
2022-11-22T12:54:19.693Z,3.85
2022-11-22T12:59:52.401Z,4.02
2022-11-22T13:05:24.848Z,4.13
2022-11-22T13:10:52.937Z,4.07
2022-11-22T13:16:17.107Z,4.13
2022-11-22T13:22:03.941Z,3.94
2022-11-22T13:27:36.852Z,3.84
2022-11-22T13:33:02.480Z,3.66
2022-11-22T13:38:27.487Z,3.62
2022-11-22T13:43:57.137Z,3.61
2022-11-22T13:49:37.425Z,3.62
2022-11-22T13:55:29.090Z,3.61
2022-11-22T14:00:53.957Z,3.48
2022-11-22T14:06:29.055Z,3.55
2022-11-22T14:12:05.762Z,3.62
2022-11-22T14:17:42.395Z,3.57
2022-11-22T14:23:22.973Z,3.52
2022-11-22T14:29:20.345Z,3.54
2022-11-22T14:35:26.329Z,3.52
2022-11-22T14:41:43.056Z,3.29
2022-11-22T14:47:14.809Z,3.17
2022-11-22T14:52:45.347Z,3.16
2022-11-22T14:58:20.927Z,3.13
2022-11-22T15:09:11.059Z,3.21
2022-11-22T15:10:07.709Z,3.08
2022-11-22T16:02:49.956Z,3.01
2022-11-22T16:08:20.434Z,2.93
2022-11-22T16:13:49.701Z,2.86
2022-11-22T16:19:33.552Z,2.78
2022-11-22T16:25:30.975Z,2.58
2022-11-22T16:31:03.360Z,2.60
2022-11-22T16:36:31.458Z,2.51
2022-11-22T16:42:01.819Z,2.52
2022-11-22T16:47:26.860Z,2.41
2022-11-22T16:53:02.516Z,2.35
2022-11-22T16:58:47.466Z,2.37
2022-11-22T17:04:23.304Z,2.25
2022-11-22T17:15:44.666Z,2.06
2022-11-22T17:21:17.393Z,1.91
2022-11-22T17:26:46.206Z,1.96
2022-11-22T17:32:25.889Z,1.89
2022-11-22T17:37:55.443Z,1.93
2022-11-22T17:43:24.660Z,1.85
2022-11-22T17:48:54.632Z,1.86
2022-11-22T17:54:20.523Z,1.78
2022-11-22T17:59:49.383Z,1.73
2022-11-22T18:05:14.578Z,1.68
2022-11-22T18:10:39.795Z,1.72
2022-11-22T18:16:07.920Z,1.73
2022-11-22T18:21:34.014Z,1.57
2022-11-22T18:27:05.338Z,1.54
2022-11-22T18:32:27.780Z,1.55
2022-11-22T18:37:57.535Z,1.57
2022-11-22T18:43:23.979Z,1.41
2022-11-22T18:48:52.492Z,1.45
2022-11-22T18:54:18.559Z,1.47
2022-11-22T18:59:47.711Z,1.44
2022-11-22T19:05:19.866Z,1.55
2022-11-22T19:10:58.026Z,1.47
2022-11-22T19:16:22.478Z,1.31
2022-11-22T19:21:47.881Z,1.41
2022-11-22T19:27:14.345Z,1.31
2022-11-22T19:32:45.171Z,1.24
2022-11-22T19:38:10.411Z,1.28
2022-11-22T19:43:36.415Z,1.28
2022-11-22T19:49:07.049Z,1.31
2022-11-22T19:54:36.450Z,1.25
2022-11-22T20:00:01.273Z,1.33
2022-11-22T20:05:24.519Z,1.31
2022-11-22T20:10:48.414Z,1.44
2022-11-22T20:16:18.071Z,1.42
2022-11-22T20:21:44.886Z,1.34
2022-11-22T20:27:13.975Z,1.38
2022-11-22T20:32:45.331Z,1.38
2022-11-22T20:38:15.570Z,1.48
2022-11-22T20:43:41.512Z,1.59
2022-11-22T20:49:06.264Z,1.54
2022-11-22T20:54:35.587Z,1.59
2022-11-22T21:00:05.003Z,1.63
2022-11-22T21:05:35.249Z,1.73
2022-11-22T21:11:06.574Z,1.65
2022-11-22T21:16:31.428Z,1.69
2022-11-22T21:22:02.627Z,1.82
2022-11-22T21:27:30.926Z,1.56
2022-11-22T21:32:59.732Z,1.57
2022-11-22T21:38:31.518Z,1.43
2022-11-22T21:43:56.863Z,1.41
2022-11-22T21:49:27.822Z,1.44
2022-11-22T21:54:54.398Z,1.42
2022-11-22T22:00:18.823Z,1.39
2022-11-22T22:05:49.529Z,1.31
2022-11-22T22:11:20.005Z,1.26
2022-11-22T22:16:48.602Z,1.22
2022-11-22T22:22:13.873Z,1.13
2022-11-22T22:27:42.106Z,1.21
2022-11-22T22:33:05.470Z,1.29
2022-11-22T22:38:30.765Z,1.26
2022-11-22T22:43:55.929Z,1.24
2022-11-22T22:49:18.809Z,1.25
2022-11-22T22:54:42.651Z,1.14
2022-11-22T23:00:09.156Z,1.18
2022-11-22T23:05:32.481Z,1.22
2022-11-22T23:11:02.589Z,1.23
2022-11-22T23:16:28.514Z,1.26
2022-11-22T23:21:57.725Z,1.14
2022-11-22T23:27:26.728Z,1.07
2022-11-22T23:32:55.198Z,1.14
2022-11-22T23:38:23.633Z,1.17
2022-11-22T23:43:54.276Z,1.35
2022-11-22T23:49:20.001Z,1.30
2022-11-22T23:54:48.313Z,1.28
